createdAt,value
2023-01-19T00:01:42.395Z,1.05
2023-01-19T00:04:10.897Z,1.13
2023-01-19T00:06:39.369Z,1.27
2023-01-19T00:09:07.795Z,1.30
2023-01-19T00:11:36.634Z,1.50
2023-01-19T00:14:05.621Z,1.13
2023-01-19T00:16:35.465Z,1.25
2023-01-19T00:19:04.301Z,1.10
2023-01-19T00:21:32.755Z,1.70
2023-01-19T00:24:01.256Z,1.23
2023-01-19T00:26:29.663Z,1.30
2023-01-19T00:28:58.221Z,1.33
2023-01-19T00:31:29.946Z,1.30
2023-01-19T00:33:59.761Z,1.30
2023-01-19T00:36:28.152Z,1.30
2023-01-19T00:38:56.665Z,1.38
2023-01-19T00:41:39.452Z,1.30
2023-01-19T00:44:08.156Z,1.15
2023-01-19T00:46:36.655Z,1.20
2023-01-19T00:49:07.083Z,1.25
2023-01-19T00:51:35.636Z,1.27
2023-01-19T00:54:04.952Z,1.30
2023-01-19T00:56:33.504Z,1.30
2023-01-19T00:59:01.878Z,1.33
2023-01-19T01:01:45.381Z,1.20
2023-01-19T01:04:16.374Z,1.25
2023-01-19T01:06:44.766Z,1.10
2023-01-19T01:09:13.214Z,1.30
2023-01-19T01:11:42.397Z,1.25
2023-01-19T01:14:12.175Z,1.20
2023-01-19T01:16:41.533Z,1.20
2023-01-19T01:19:10.322Z,1.05
2023-01-19T01:21:40.126Z,1.20
2023-01-19T01:24:10.502Z,1.13
2023-01-19T01:26:39.572Z,1.20
2023-01-19T01:29:08.570Z,1.35
2023-01-19T01:31:37.023Z,1.27
2023-01-19T01:34:05.572Z,1.20
2023-01-19T01:36:34.129Z,1.40
2023-01-19T01:39:04.719Z,1.20
2023-01-19T01:41:33.290Z,1.30
2023-01-19T01:44:06.127Z,1.20
2023-01-19T01:46:35.098Z,1.25
2023-01-19T01:49:07.347Z,1.23
2023-01-19T01:51:40.080Z,1.33
2023-01-19T01:54:16.539Z,1.10
2023-01-19T01:56:47.751Z,1.23
2023-01-19T01:59:26.032Z,1.23
2023-01-19T02:02:19.937Z,1.23
2023-01-19T02:04:51.612Z,1.10
2023-01-19T02:07:45.316Z,1.23
2023-01-19T02:10:33.219Z,1.30
2023-01-19T02:13:19.421Z,1.20
2023-01-19T02:18:16.686Z,1.40
2023-01-19T02:20:51.925Z,1.25
2023-01-19T02:23:31.670Z,1.25
2023-01-19T02:26:01.690Z,1.30
2023-01-19T02:28:31.905Z,1.30
2023-01-19T02:31:00.373Z,1.30
2023-01-19T02:33:29.518Z,1.30
2023-01-19T02:35:58.546Z,1.20
2023-01-19T02:38:30.081Z,1.30
2023-01-19T02:41:02.021Z,1.20
2023-01-19T02:43:32.077Z,1.17
2023-01-19T02:46:00.737Z,1.20
2023-01-19T02:48:29.160Z,1.20
2023-01-19T02:51:04.214Z,1.30
2023-01-19T02:54:13.959Z,1.27
2023-01-19T02:56:58.512Z,1.20
2023-01-19T02:59:41.104Z,1.30
2023-01-19T03:02:22.289Z,1.20
2023-01-19T03:05:06.509Z,1.30
2023-01-19T03:07:50.390Z,1.10
2023-01-19T03:10:27.159Z,1.40
2023-01-19T03:13:03.316Z,1.23
2023-01-19T03:15:38.487Z,1.02
2023-01-19T03:18:11.268Z,1.20
2023-01-19T03:20:41.439Z,1.23
2023-01-19T03:23:13.827Z,1.20
2023-01-19T03:25:47.474Z,1.40
2023-01-19T03:28:19.741Z,1.38
2023-01-19T03:31:00.182Z,1.23
2023-01-19T03:33:32.681Z,1.17
2023-01-19T03:36:06.413Z,1.00
2023-01-19T03:38:38.297Z,1.30
2023-01-19T03:41:11.835Z,1.30
2023-01-19T03:43:41.690Z,1.08
2023-01-19T03:46:11.722Z,1.30
2023-01-19T03:48:40.351Z,1.45
2023-01-19T03:51:10.867Z,1.13
2023-01-19T03:53:39.298Z,1.15
2023-01-19T03:56:18.888Z,1.23
2023-01-19T03:58:47.579Z,1.00
2023-01-19T04:01:17.231Z,1.40
2023-01-19T04:03:47.123Z,1.20
2023-01-19T04:06:16.078Z,1.20
2023-01-19T04:08:44.870Z,0.95
2023-01-19T04:11:14.617Z,1.05
2023-01-19T04:13:43.269Z,1.10
2023-01-19T04:16:12.367Z,1.23
2023-01-19T04:18:42.262Z,1.40
2023-01-19T04:21:10.948Z,1.20
2023-01-19T04:23:39.322Z,1.38
2023-01-19T04:26:09.490Z,1.20
2023-01-19T04:28:39.420Z,1.30
2023-01-19T04:31:08.523Z,1.30
2023-01-19T04:33:37.086Z,1.20
2023-01-19T04:36:06.311Z,1.13
2023-01-19T04:38:35.032Z,1.10
2023-01-19T04:41:03.463Z,1.30
2023-01-19T04:43:31.964Z,1.38
2023-01-19T04:46:02.172Z,1.10
2023-01-19T04:48:30.643Z,1.10
2023-01-19T04:50:59.068Z,1.20
2023-01-19T04:53:27.510Z,1.10
2023-01-19T04:55:56.368Z,1.10
2023-01-19T04:58:24.747Z,1.30
2023-01-19T05:00:53.244Z,1.15
2023-01-19T05:03:24.955Z,1.10
2023-01-19T05:05:54.221Z,1.00
2023-01-19T05:08:22.699Z,1.10
2023-01-19T05:10:51.250Z,1.05
2023-01-19T05:13:19.749Z,1.13
2023-01-19T05:15:48.193Z,1.02
2023-01-19T05:18:16.785Z,1.13
2023-01-19T05:20:46.801Z,1.02
2023-01-19T05:23:15.271Z,1.10
2023-01-19T05:25:44.536Z,1.10
2023-01-19T05:28:13.123Z,0.98
2023-01-19T05:30:41.619Z,1.10
2023-01-19T05:33:10.076Z,1.05
2023-01-19T05:35:38.537Z,1.20
2023-01-19T05:38:08.291Z,1.00
2023-01-19T05:40:36.650Z,1.13
2023-01-19T05:43:05.432Z,1.10
2023-01-19T05:45:34.309Z,1.27
2023-01-19T05:48:02.956Z,1.10
2023-01-19T05:50:31.617Z,1.20
2023-01-19T05:53:01.088Z,1.30
2023-01-19T05:55:31.148Z,1.13
2023-01-19T05:57:59.609Z,1.20
2023-01-19T06:00:29.215Z,1.30
2023-01-19T06:02:57.773Z,1.40
2023-01-19T06:05:26.293Z,1.20
2023-01-19T06:07:57.390Z,1.10
2023-01-19T06:10:25.954Z,1.08
2023-01-19T06:12:55.711Z,1.00
2023-01-19T06:15:24.196Z,1.08
2023-01-19T06:17:52.636Z,1.20
2023-01-19T06:20:21.047Z,1.08
2023-01-19T06:22:49.503Z,0.95
2023-01-19T06:25:18.119Z,1.85
2023-01-19T06:27:46.577Z,1.20
2023-01-19T06:30:17.080Z,1.33
2023-01-19T06:32:45.490Z,1.20
2023-01-19T06:35:14.330Z,1.05
2023-01-19T06:37:42.776Z,1.25
2023-01-19T06:40:14.375Z,1.00
2023-01-19T06:42:42.958Z,1.17
2023-01-19T06:45:11.861Z,1.30
2023-01-19T06:47:41.615Z,1.20
2023-01-19T06:50:11.669Z,1.10
2023-01-19T06:52:42.403Z,1.00
2023-01-19T06:55:11.891Z,1.10
2023-01-19T06:57:40.691Z,1.25
2023-01-19T07:00:11.651Z,1.10
2023-01-19T07:02:43.702Z,1.30
2023-01-19T07:05:14.402Z,0.90
2023-01-19T07:07:44.790Z,1.20
2023-01-19T07:10:15.639Z,1.00
2023-01-19T07:12:46.459Z,1.10
2023-01-19T07:15:15.576Z,1.00
2023-01-19T07:17:45.463Z,1.10
2023-01-19T07:20:15.031Z,1.00
2023-01-19T07:22:45.697Z,1.13
2023-01-19T07:25:14.822Z,1.10
2023-01-19T07:27:44.865Z,1.15
2023-01-19T07:30:16.123Z,1.10
2023-01-19T07:32:45.981Z,0.93
2023-01-19T07:35:15.440Z,1.02
2023-01-19T07:37:43.911Z,1.38
2023-01-19T07:40:13.184Z,0.98
2023-01-19T07:42:46.469Z,1.02
2023-01-19T07:45:15.196Z,1.10
2023-01-19T07:47:46.264Z,1.40
2023-01-19T07:50:14.902Z,1.15
2023-01-19T07:52:43.708Z,1.25
2023-01-19T07:55:12.255Z,1.27
2023-01-19T07:57:40.774Z,1.10
2023-01-19T08:00:10.635Z,1.10
2023-01-19T08:02:42.150Z,1.10
2023-01-19T08:05:13.261Z,1.60
2023-01-19T08:07:41.666Z,1.20
2023-01-19T08:10:11.133Z,1.10
2023-01-19T08:12:39.562Z,1.00
2023-01-19T08:15:09.371Z,1.20
2023-01-19T08:17:37.941Z,1.10
2023-01-19T08:20:09.222Z,1.15
2023-01-19T08:22:39.008Z,1.60
2023-01-19T08:25:07.904Z,1.30
2023-01-19T08:27:36.311Z,1.20
2023-01-19T08:30:05.522Z,1.30
2023-01-19T08:32:33.935Z,1.30
2023-01-19T08:35:02.425Z,1.30
2023-01-19T08:37:32.666Z,1.02
2023-01-19T08:40:03.905Z,1.23
2023-01-19T08:42:32.365Z,1.20
2023-01-19T08:45:00.850Z,1.10
2023-01-19T08:47:30.205Z,1.35
2023-01-19T08:49:58.717Z,1.30
2023-01-19T08:52:29.262Z,1.20
2023-01-19T08:54:57.741Z,1.40
2023-01-19T08:57:28.246Z,1.42
2023-01-19T08:59:56.673Z,1.40
2023-01-19T09:02:25.166Z,1.38
2023-01-19T09:04:53.651Z,1.30
2023-01-19T09:07:22.153Z,1.17
2023-01-19T09:09:50.570Z,1.25
2023-01-19T09:12:18.958Z,1.40
2023-01-19T09:14:48.855Z,1.23
2023-01-19T09:17:18.099Z,1.20
2023-01-19T09:19:46.519Z,1.20
2023-01-19T09:22:14.979Z,1.20
2023-01-19T09:24:43.416Z,1.13
2023-01-19T09:27:11.883Z,1.20
2023-01-19T09:29:40.397Z,1.10
2023-01-19T09:32:11.293Z,1.10
2023-01-19T09:34:39.691Z,1.02
2023-01-19T09:37:08.871Z,1.17
2023-01-19T09:39:37.592Z,1.30
2023-01-19T09:42:24.119Z,1.20
2023-01-19T09:44:54.364Z,1.10
2023-01-19T09:47:28.182Z,1.15
2023-01-19T09:50:02.180Z,1.25
2023-01-19T09:55:01.155Z,1.27
2023-01-19T09:57:30.226Z,1.00
2023-01-19T09:59:59.602Z,1.48
2023-01-19T10:02:38.077Z,1.20
2023-01-19T10:05:22.355Z,1.35
2023-01-19T10:08:06.092Z,1.50
2023-01-19T10:10:36.780Z,1.40
2023-01-19T10:13:29.899Z,1.40
2023-01-19T10:16:08.354Z,1.70
2023-01-19T10:18:47.446Z,1.35
2023-01-19T10:21:20.257Z,1.58
2023-01-19T10:23:52.159Z,1.60
2023-01-19T10:26:25.388Z,1.60
2023-01-19T10:28:58.812Z,1.63
2023-01-19T10:31:27.369Z,1.63
2023-01-19T10:33:57.238Z,1.55
2023-01-19T10:36:30.166Z,1.40
2023-01-19T10:38:59.177Z,1.73
2023-01-19T10:41:37.516Z,1.63
2023-01-19T10:44:09.432Z,1.83
2023-01-19T10:46:43.252Z,2.08
2023-01-19T10:49:25.583Z,1.60
2023-01-19T10:51:55.266Z,2.08
2023-01-19T10:54:24.648Z,1.70
2023-01-19T10:56:56.519Z,1.63
2023-01-19T10:59:33.787Z,1.80
2023-01-19T11:02:20.692Z,1.83
2023-01-19T11:04:53.902Z,1.67
2023-01-19T11:07:24.502Z,1.85
2023-01-19T11:10:14.097Z,2.00
2023-01-19T11:12:44.309Z,1.85
2023-01-19T11:15:17.468Z,2.03
2023-01-19T11:17:48.148Z,1.83
2023-01-19T11:20:24.408Z,1.80
2023-01-19T11:23:05.526Z,1.40
2023-01-19T11:25:36.652Z,1.70
2023-01-19T11:28:06.164Z,1.52
2023-01-19T11:30:36.073Z,1.67
2023-01-19T11:33:06.126Z,1.58
2023-01-19T11:35:38.976Z,1.77
2023-01-19T11:38:15.200Z,1.52
2023-01-19T11:40:51.734Z,1.50
2023-01-19T11:43:21.768Z,1.65
2023-01-19T11:45:50.409Z,1.52
2023-01-19T11:48:26.521Z,1.80
2023-01-19T11:51:01.556Z,2.03
2023-01-19T11:53:34.258Z,1.60
2023-01-19T11:56:05.708Z,2.03
2023-01-19T11:58:39.576Z,2.38
2023-01-19T12:01:20.812Z,2.85
2023-01-19T12:03:56.124Z,2.92
2023-01-19T12:06:30.491Z,2.65
2023-01-19T12:09:03.377Z,2.70
2023-01-19T12:11:35.675Z,2.33
2023-01-19T12:14:05.332Z,2.30
2023-01-19T12:16:35.545Z,2.00
2023-01-19T12:19:07.768Z,2.25
2023-01-19T12:21:38.788Z,2.30
2023-01-19T12:24:16.235Z,2.20
2023-01-19T12:26:52.341Z,1.92
2023-01-19T12:29:23.349Z,1.85
2023-01-19T12:32:19.486Z,2.15
2023-01-19T12:34:49.390Z,2.08
2023-01-19T12:37:40.526Z,1.95
2023-01-19T12:40:27.371Z,2.05
2023-01-19T12:43:01.198Z,2.10
2023-01-19T12:45:34.764Z,1.63
2023-01-19T12:48:04.950Z,1.92
2023-01-19T12:50:37.643Z,1.88
2023-01-19T12:53:18.334Z,1.95
2023-01-19T12:55:47.626Z,1.83
2023-01-19T12:58:18.958Z,1.90
2023-01-19T13:00:50.516Z,1.90
2023-01-19T13:03:45.393Z,1.70
2023-01-19T13:06:14.024Z,1.63
2023-01-19T13:09:01.592Z,1.52
2023-01-19T13:11:34.304Z,1.98
2023-01-19T13:14:35.651Z,1.85
2023-01-19T13:17:33.512Z,1.48
2023-01-19T13:20:18.822Z,1.92
2023-01-19T13:23:24.865Z,1.90
2023-01-19T13:26:02.625Z,1.88
2023-01-19T13:28:40.137Z,1.98
2023-01-19T13:31:09.941Z,1.67
2023-01-19T13:33:52.637Z,1.75
2023-01-19T13:36:28.636Z,1.60
2023-01-19T13:38:59.322Z,1.88
2023-01-19T13:41:33.145Z,1.90
2023-01-19T13:44:04.291Z,1.70
2023-01-19T13:46:34.628Z,1.80
2023-01-19T13:49:10.762Z,1.70
2023-01-19T13:51:39.438Z,1.58
2023-01-19T13:54:17.217Z,1.50
2023-01-19T13:56:51.013Z,1.55
2023-01-19T13:59:19.490Z,1.92
2023-01-19T14:01:49.154Z,1.60
2023-01-19T14:04:29.068Z,1.60
2023-01-19T14:06:59.711Z,1.70
2023-01-19T14:09:28.234Z,1.55
2023-01-19T14:12:12.057Z,1.45
2023-01-19T14:14:41.133Z,1.63
2023-01-19T14:17:23.069Z,1.42
2023-01-19T14:19:52.799Z,1.60
2023-01-19T14:22:21.563Z,1.60
2023-01-19T14:24:50.123Z,1.55
2023-01-19T14:27:25.142Z,1.45
2023-01-19T14:29:54.836Z,1.50
2023-01-19T14:32:27.750Z,1.60
2023-01-19T14:35:15.375Z,1.42
2023-01-19T14:37:48.447Z,1.73
2023-01-19T14:40:19.895Z,1.60
2023-01-19T14:42:53.939Z,1.33
2023-01-19T14:47:57.671Z,1.70
2023-01-19T14:50:29.001Z,1.42
2023-01-19T14:53:01.190Z,1.95
2023-01-19T14:55:34.353Z,2.03
2023-01-19T14:58:11.480Z,2.28
2023-01-19T15:00:40.401Z,1.77
2023-01-19T15:03:09.888Z,1.70
2023-01-19T15:05:38.652Z,1.85
2023-01-19T15:08:08.728Z,2.03
2023-01-19T15:10:37.491Z,1.80
2023-01-19T15:13:07.395Z,1.95
2023-01-19T15:15:36.530Z,1.67
2023-01-19T15:18:07.506Z,1.67
2023-01-19T15:20:35.936Z,1.60
2023-01-19T15:23:04.392Z,1.77
2023-01-19T15:25:34.920Z,1.90
2023-01-19T15:28:04.080Z,1.90
2023-01-19T15:30:34.269Z,1.75
2023-01-19T15:33:03.009Z,1.80
2023-01-19T15:35:31.539Z,1.70
2023-01-19T15:38:00.011Z,1.70
2023-01-19T15:40:28.625Z,1.88
2023-01-19T15:42:57.098Z,1.52
2023-01-19T15:45:47.897Z,1.85
2023-01-19T15:48:16.558Z,1.70
2023-01-19T15:50:46.037Z,1.45
2023-01-19T15:53:16.682Z,1.80
2023-01-19T15:55:46.111Z,1.70
2023-01-19T15:58:14.714Z,1.60
2023-01-19T16:00:44.590Z,1.63
2023-01-19T16:03:13.447Z,2.05
2023-01-19T16:05:43.397Z,1.80
2023-01-19T16:08:12.786Z,2.33
2023-01-19T16:10:41.740Z,1.90
2023-01-19T16:13:11.706Z,1.70
2023-01-19T16:15:42.186Z,2.15
2023-01-19T16:18:12.092Z,1.98
2023-01-19T16:20:40.931Z,2.22
2023-01-19T16:23:14.853Z,2.05
2023-01-19T16:25:44.212Z,2.20
2023-01-19T16:28:12.945Z,1.90
2023-01-19T16:30:41.633Z,2.10
2023-01-19T16:33:13.732Z,2.25
2023-01-19T16:35:42.408Z,2.00
2023-01-19T16:38:11.334Z,2.22
2023-01-19T16:40:39.895Z,2.20
2023-01-19T16:43:08.427Z,2.20
2023-01-19T16:45:40.617Z,2.17
2023-01-19T16:48:09.098Z,2.10
2023-01-19T16:50:38.896Z,2.00
2023-01-19T16:53:07.396Z,2.15
2023-01-19T16:55:35.821Z,2.33
2023-01-19T16:58:04.305Z,2.35
2023-01-19T17:00:32.778Z,2.22
2023-01-19T17:03:01.223Z,1.95
2023-01-19T17:05:29.736Z,2.10
2023-01-19T17:07:59.631Z,2.20
2023-01-19T17:10:28.107Z,2.40
2023-01-19T17:12:56.570Z,2.10
2023-01-19T17:15:25.018Z,1.88
2023-01-19T17:17:53.455Z,1.92
2023-01-19T17:20:21.945Z,2.13
2023-01-19T17:22:50.386Z,2.00
2023-01-19T17:25:20.348Z,1.75
2023-01-19T17:27:48.787Z,1.90
2023-01-19T17:30:18.126Z,1.88
2023-01-19T17:32:46.609Z,2.13
2023-01-19T17:35:15.108Z,1.92
2023-01-19T17:37:43.592Z,2.00
2023-01-19T17:40:12.841Z,1.80
2023-01-19T17:42:43.189Z,2.10
2023-01-19T17:45:12.068Z,1.77
2023-01-19T17:47:40.549Z,1.95
2023-01-19T17:50:10.044Z,1.90
2023-01-19T17:52:38.700Z,1.60
2023-01-19T17:55:07.905Z,2.10
2023-01-19T17:57:36.850Z,1.90
2023-01-19T18:00:08.405Z,1.80
2023-01-19T18:02:43.308Z,1.67
2023-01-19T18:05:14.155Z,2.00
2023-01-19T18:07:42.696Z,1.75
2023-01-19T18:10:12.738Z,1.77
2023-01-19T18:12:41.549Z,1.88
2023-01-19T18:15:12.486Z,1.83
2023-01-19T18:17:41.003Z,1.88
2023-01-19T18:20:11.329Z,1.98
2023-01-19T18:22:39.938Z,2.08
2023-01-19T18:25:08.957Z,1.92
2023-01-19T18:27:37.377Z,1.90
2023-01-19T18:30:07.000Z,1.58
2023-01-19T18:32:36.819Z,1.83
2023-01-19T18:35:06.138Z,1.80
2023-01-19T18:37:34.667Z,1.98
2023-01-19T18:40:04.426Z,1.80
2023-01-19T18:42:34.868Z,2.03
2023-01-19T18:45:03.921Z,1.90
2023-01-19T18:47:34.526Z,2.20
2023-01-19T18:50:04.590Z,1.40
2023-01-19T18:52:33.317Z,1.70
2023-01-19T18:55:01.716Z,1.67
2023-01-19T18:57:30.194Z,1.73
2023-01-19T18:59:58.680Z,1.58
2023-01-19T19:02:27.189Z,1.60
2023-01-19T19:04:55.750Z,2.10
2023-01-19T19:07:25.586Z,1.80
2023-01-19T19:09:54.054Z,2.00
2023-01-19T19:12:22.508Z,1.80
2023-01-19T19:14:50.913Z,1.73
2023-01-19T19:17:19.459Z,1.80
2023-01-19T19:19:47.940Z,1.60
2023-01-19T19:22:16.531Z,1.90
2023-01-19T19:24:46.302Z,1.90
2023-01-19T19:27:14.929Z,1.65
2023-01-19T19:29:44.886Z,1.85
2023-01-19T19:32:13.580Z,1.60
2023-01-19T19:34:42.324Z,1.52
2023-01-19T19:37:10.787Z,1.95
2023-01-19T19:39:39.271Z,1.60
2023-01-19T19:42:09.169Z,1.65
2023-01-19T19:44:37.714Z,1.65
2023-01-19T19:47:06.336Z,1.80
2023-01-19T19:49:34.836Z,1.63
2023-01-19T19:52:03.451Z,1.70
2023-01-19T19:54:31.969Z,1.50
2023-01-19T19:57:00.376Z,1.35
2023-01-19T19:59:30.138Z,1.70
2023-01-19T20:01:58.666Z,1.90
2023-01-19T20:04:27.245Z,1.48
2023-01-19T20:06:55.771Z,1.42
2023-01-19T20:09:24.244Z,1.45
2023-01-19T20:11:52.915Z,1.70
2023-01-19T20:14:22.407Z,1.85
2023-01-19T20:16:54.260Z,1.40
2023-01-19T20:19:22.678Z,1.65
2023-01-19T20:21:51.234Z,1.63
2023-01-19T20:24:21.350Z,1.30
2023-01-19T20:26:52.319Z,1.67
2023-01-19T20:29:21.844Z,1.80
2023-01-19T20:31:54.236Z,1.50
2023-01-19T20:34:24.719Z,1.83
2023-01-19T20:36:53.934Z,1.70
2023-01-19T20:39:23.993Z,1.55
2023-01-19T20:41:52.915Z,1.45
2023-01-19T20:44:23.528Z,1.50
2023-01-19T20:46:55.351Z,1.60
2023-01-19T20:49:24.124Z,1.50
2023-01-19T20:51:53.388Z,1.40
2023-01-19T20:54:26.289Z,1.70
2023-01-19T20:56:55.442Z,1.50
2023-01-19T20:59:24.444Z,1.50
2023-01-19T21:01:54.306Z,1.80
2023-01-19T21:04:23.176Z,1.60
2023-01-19T21:06:52.143Z,1.75
2023-01-19T21:09:21.703Z,1.48
2023-01-19T21:11:50.212Z,1.50
2023-01-19T21:14:18.600Z,1.52
2023-01-19T21:16:47.149Z,1.55
2023-01-19T21:19:17.287Z,1.60
2023-01-19T21:21:45.748Z,1.58
2023-01-19T21:24:14.136Z,1.70
2023-01-19T21:26:42.771Z,1.60
2023-01-19T21:29:13.222Z,1.50
2023-01-19T21:31:42.152Z,1.67
2023-01-19T21:34:10.784Z,1.50
2023-01-19T21:36:41.727Z,1.80
2023-01-19T21:39:10.303Z,1.60
2023-01-19T21:41:40.192Z,1.67
2023-01-19T21:44:08.898Z,1.73
2023-01-19T21:46:37.288Z,1.75
2023-01-19T21:49:08.338Z,1.60
2023-01-19T21:51:38.060Z,1.45
2023-01-19T21:54:08.119Z,1.70
2023-01-19T21:56:37.870Z,1.83
2023-01-19T21:59:06.725Z,1.60
2023-01-19T22:01:35.959Z,1.35
2023-01-19T22:04:04.491Z,1.48
2023-01-19T22:06:32.990Z,1.63
2023-01-19T22:09:01.623Z,1.58
2023-01-19T22:11:31.624Z,1.60
2023-01-19T22:14:00.835Z,1.60
2023-01-19T22:16:30.432Z,1.40
2023-01-19T22:19:01.244Z,1.60
2023-01-19T22:21:31.455Z,1.40
2023-01-19T22:24:01.964Z,1.42
2023-01-19T22:26:34.008Z,1.50
2023-01-19T22:29:03.172Z,1.50
2023-01-19T22:31:31.766Z,1.42
2023-01-19T22:34:00.405Z,1.65
2023-01-19T22:36:30.505Z,1.40
2023-01-19T22:39:01.053Z,1.65
2023-01-19T22:41:32.763Z,1.50
2023-01-19T22:44:03.034Z,1.48
2023-01-19T22:46:33.043Z,1.40
2023-01-19T22:49:02.448Z,1.60
2023-01-19T22:51:32.343Z,1.50
2023-01-19T22:54:01.099Z,1.55
2023-01-19T22:56:32.765Z,1.60
2023-01-19T22:59:01.391Z,1.50
2023-01-19T23:01:33.313Z,1.50
2023-01-19T23:04:04.191Z,1.63
2023-01-19T23:06:34.359Z,1.50
2023-01-19T23:09:06.612Z,1.50
2023-01-19T23:11:38.580Z,1.67
2023-01-19T23:14:09.530Z,1.65
2023-01-19T23:16:38.348Z,1.30
2023-01-19T23:19:07.464Z,1.50
2023-01-19T23:21:36.852Z,1.40
2023-01-19T23:24:05.894Z,1.30
2023-01-19T23:26:38.105Z,1.50
2023-01-19T23:29:10.603Z,1.60
2023-01-19T23:31:42.982Z,1.40
2023-01-19T23:34:13.125Z,1.45
2023-01-19T23:36:42.989Z,1.50
2023-01-19T23:39:15.184Z,1.30
2023-01-19T23:41:45.277Z,1.33
2023-01-19T23:44:14.222Z,1.55
2023-01-19T23:46:43.784Z,1.80
2023-01-19T23:49:12.573Z,1.40
2023-01-19T23:51:42.096Z,1.30
2023-01-19T23:54:12.172Z,1.90
2023-01-19T23:56:42.542Z,1.42
2023-01-19T23:59:14.177Z,1.55
